Peru, Vermont
Current Conditions -  °F | °C
As of 10:54 PM on Tuesday 21 Oct 2014 (Local Time) from KVSF Reporting Station
Overcast Overcast  
Wind Chill:   Ceiling: 1200
Heat Index:   Visibility: 10mi
Dew Point:   Wind: 5mph
Humidity: 86%   Direction: 350°N
Pressure: 30.05"   Gusts: NA
Location:  43.23°N, 72.9°W
Report Text: KVSF 220254Z AUTO 35004KT 10SM OVC012 09/07 A3005 RMK AO2 SLP181 T00940072 51016
Loading
Personal Weather Stations






























Interactive Weather Map
Tropical Storm Tracking
New forecast layout! Learn more

10-Day Weather Forecast

Advertisements
Track Severe Weather on mobile